Terminal Aerodrome Forecast
Issued by NWS

Home | Current Version | Previous Version | Text Only | Print | Product List | Glossary Off
Versions: 1 2 3 4 5 6 7 8 9 10 11 12 13 14 15 16 17 18 19 20 21 22

000
FTUS45 KGGW 191100
TAFOLF
TAF
KOLF 191134Z 1912/2012 VRB03KT P6SM SCT100
     FM191800 19009KT P6SM FEW090
     FM200300 VRB06KT P6SM SCT050 BKN250=

USA.gov is the U.S. government's official web portal to all federal, state and local government web resources and services.